createdAt,value
2022-11-03T00:01:39.965Z,13.00
2022-11-03T00:04:09.710Z,13.00
2022-11-03T00:06:38.701Z,13.00
2022-11-03T00:09:11.002Z,13.00
2022-11-03T00:11:42.126Z,13.10
2022-11-03T00:14:11.042Z,13.00
2022-11-03T00:16:39.820Z,13.00
2022-11-03T00:19:09.763Z,13.00
2022-11-03T00:21:39.793Z,13.00
2022-11-03T00:24:09.080Z,13.00
2022-11-03T00:26:37.844Z,13.00
2022-11-03T00:29:11.471Z,13.10
2022-11-03T00:31:41.371Z,13.00
2022-11-03T00:34:10.656Z,13.10
2022-11-03T00:36:40.494Z,13.10
2022-11-03T00:39:08.837Z,13.10
2022-11-03T00:41:37.103Z,13.00
2022-11-03T00:44:05.829Z,13.00
2022-11-03T00:46:36.144Z,13.00
2022-11-03T00:49:05.320Z,13.10
2022-11-03T00:51:34.551Z,13.10
2022-11-03T00:54:04.411Z,13.00
2022-11-03T00:56:34.179Z,13.10
2022-11-03T00:59:04.615Z,13.10
2022-11-03T01:01:39.366Z,13.10
2022-11-03T01:04:29.773Z,13.10
2022-11-03T01:06:59.901Z,13.20
2022-11-03T01:09:30.149Z,13.20
2022-11-03T01:12:01.177Z,13.20
2022-11-03T01:14:33.109Z,13.20
2022-11-03T01:17:02.885Z,13.20
2022-11-03T01:19:31.384Z,13.10
2022-11-03T01:22:00.122Z,13.20
2022-11-03T01:24:28.294Z,13.20
2022-11-03T01:26:58.998Z,13.20
2022-11-03T01:29:30.202Z,13.20
2022-11-03T01:31:58.962Z,13.10
2022-11-03T01:34:28.539Z,13.20
2022-11-03T01:36:57.182Z,13.20
2022-11-03T01:39:25.333Z,13.20
2022-11-03T01:41:54.108Z,13.20
2022-11-03T01:44:31.413Z,13.20
2022-11-03T01:47:06.025Z,13.20
2022-11-03T01:49:41.364Z,13.30
2022-11-03T01:52:14.198Z,13.30
2022-11-03T01:54:46.143Z,13.40
2022-11-03T01:57:20.866Z,13.40
2022-11-03T01:59:49.892Z,13.40
2022-11-03T02:02:18.088Z,13.50
2022-11-03T02:04:50.533Z,13.40
2022-11-03T02:07:26.238Z,13.50
2022-11-03T02:09:54.434Z,13.40
2022-11-03T02:12:24.094Z,13.40
2022-11-03T02:14:56.459Z,13.40
2022-11-03T02:17:29.470Z,13.40
2022-11-03T02:20:03.681Z,13.40
2022-11-03T02:22:51.974Z,13.40
2022-11-03T02:25:47.835Z,13.40
2022-11-03T02:28:19.550Z,13.40
2022-11-03T02:31:11.335Z,13.40
2022-11-03T02:37:23.253Z,13.50
2022-11-03T02:39:56.360Z,13.50
2022-11-03T02:42:26.646Z,13.50
2022-11-03T02:44:59.066Z,13.50
2022-11-03T02:47:28.990Z,13.50
2022-11-03T02:49:57.167Z,13.60
2022-11-03T02:52:37.612Z,13.60
2022-11-03T02:55:12.790Z,13.50
2022-11-03T02:57:47.269Z,13.50
2022-11-03T03:00:17.678Z,13.50
2022-11-03T03:02:53.692Z,13.50
2022-11-03T03:05:29.228Z,13.50
2022-11-03T03:08:02.898Z,13.50
2022-11-03T03:10:34.632Z,13.50
2022-11-03T03:13:10.419Z,13.40
2022-11-03T03:15:46.133Z,13.40
2022-11-03T03:18:23.034Z,13.40
2022-11-03T03:20:56.210Z,13.40
2022-11-03T03:23:26.414Z,13.40
2022-11-03T03:26:00.381Z,13.40
2022-11-03T03:28:37.315Z,13.40
2022-11-03T03:31:09.058Z,13.40
2022-11-03T03:33:39.799Z,13.40
2022-11-03T03:36:16.992Z,13.40
2022-11-03T03:38:49.107Z,13.40
2022-11-03T03:41:22.067Z,13.40
2022-11-03T03:43:55.114Z,13.30
2022-11-03T03:46:25.791Z,13.30
2022-11-03T03:48:54.134Z,13.30
2022-11-03T03:51:26.470Z,13.30
2022-11-03T03:53:55.669Z,13.30
2022-11-03T03:56:29.508Z,13.30
2022-11-03T03:58:58.969Z,13.30
2022-11-03T04:01:27.204Z,13.30
2022-11-03T04:03:55.672Z,13.20
2022-11-03T04:06:25.972Z,13.20
2022-11-03T04:08:54.162Z,13.20
2022-11-03T04:11:39.844Z,13.20
2022-11-03T04:14:27.693Z,13.20
2022-11-03T04:17:13.256Z,13.20
2022-11-03T04:20:01.480Z,13.20
2022-11-03T04:22:33.576Z,13.30
2022-11-03T04:25:01.749Z,13.30
2022-11-03T04:27:32.793Z,13.30
2022-11-03T04:30:08.558Z,13.30
2022-11-03T04:32:37.629Z,13.30
2022-11-03T04:35:16.030Z,13.30
2022-11-03T04:37:47.317Z,13.40
2022-11-03T04:40:17.602Z,13.30
2022-11-03T04:42:47.493Z,13.40
2022-11-03T04:45:26.316Z,13.30
2022-11-03T04:47:55.093Z,13.30
2022-11-03T04:50:24.931Z,13.30
2022-11-03T04:52:57.101Z,13.30
2022-11-03T04:55:26.236Z,13.40
2022-11-03T04:57:59.009Z,13.40
2022-11-03T05:00:30.436Z,13.30
2022-11-03T05:02:58.668Z,13.40
2022-11-03T05:05:27.742Z,13.40
2022-11-03T05:07:57.730Z,13.40
2022-11-03T05:10:28.115Z,13.40
2022-11-03T05:12:57.654Z,13.40
2022-11-03T05:15:36.537Z,13.40
2022-11-03T05:18:18.267Z,13.40
2022-11-03T05:20:50.737Z,13.40
2022-11-03T05:23:20.760Z,13.40
2022-11-03T05:25:51.383Z,13.40
2022-11-03T05:28:26.854Z,13.40
2022-11-03T05:30:56.689Z,13.40
2022-11-03T05:33:29.355Z,13.40
2022-11-03T05:35:59.708Z,13.40
2022-11-03T05:38:32.456Z,13.40
2022-11-03T05:41:01.256Z,13.30
2022-11-03T05:43:30.384Z,13.30
2022-11-03T05:46:02.792Z,13.40
2022-11-03T05:48:35.482Z,13.40
2022-11-03T05:51:14.765Z,13.40
2022-11-03T05:53:43.430Z,13.40
2022-11-03T05:56:18.867Z,13.40
2022-11-03T05:58:48.915Z,13.40
2022-11-03T06:01:25.196Z,13.40
2022-11-03T06:03:53.532Z,13.40
2022-11-03T06:06:30.891Z,13.50
2022-11-03T06:09:01.177Z,13.50
2022-11-03T06:11:33.866Z,13.50
2022-11-03T06:14:03.354Z,13.50
2022-11-03T06:16:40.011Z,13.40
2022-11-03T06:19:23.435Z,13.40
2022-11-03T06:21:54.059Z,13.50
2022-11-03T06:24:24.692Z,13.50
2022-11-03T06:26:53.447Z,13.50
2022-11-03T06:29:24.862Z,13.40
2022-11-03T06:31:57.802Z,13.50
2022-11-03T06:34:38.580Z,13.40
2022-11-03T06:37:21.226Z,13.40
2022-11-03T06:39:50.539Z,13.40
2022-11-03T06:42:24.741Z,13.40
2022-11-03T06:44:56.617Z,13.40
2022-11-03T06:47:31.025Z,13.40
2022-11-03T06:50:06.331Z,13.40
2022-11-03T06:52:46.341Z,13.50
2022-11-03T06:55:40.369Z,13.50
2022-11-03T06:58:19.093Z,13.50
2022-11-03T07:00:51.295Z,13.40
2022-11-03T07:03:25.325Z,13.40
2022-11-03T07:05:57.846Z,13.40
2022-11-03T07:08:29.382Z,13.50
2022-11-03T07:11:05.189Z,13.50
2022-11-03T07:13:34.852Z,13.60
2022-11-03T07:16:03.828Z,13.60
2022-11-03T07:18:37.160Z,13.50
2022-11-03T07:21:26.679Z,13.50
2022-11-03T07:23:55.048Z,13.50
2022-11-03T07:26:23.272Z,13.50
2022-11-03T07:28:52.708Z,13.50
2022-11-03T07:31:24.381Z,13.60
2022-11-03T07:33:57.944Z,13.60
2022-11-03T07:36:29.379Z,13.60
2022-11-03T07:39:01.148Z,13.60
2022-11-03T07:41:34.616Z,13.60
2022-11-03T07:44:03.692Z,13.60
2022-11-03T07:46:31.853Z,13.70
2022-11-03T07:49:04.452Z,13.60
2022-11-03T07:51:34.702Z,13.70
2022-11-03T07:54:10.212Z,13.70
2022-11-03T07:56:42.490Z,13.70
2022-11-03T07:59:17.449Z,13.80
2022-11-03T08:01:50.560Z,13.80
2022-11-03T08:04:23.177Z,13.80
2022-11-03T08:06:51.494Z,13.70
2022-11-03T08:09:21.293Z,13.70
2022-11-03T08:11:49.726Z,13.70
2022-11-03T08:14:18.050Z,13.70
2022-11-03T08:16:47.042Z,13.70
2022-11-03T08:19:15.236Z,13.70
2022-11-03T08:21:44.844Z,13.80
2022-11-03T08:24:13.319Z,13.80
2022-11-03T08:26:41.562Z,13.90
2022-11-03T08:29:10.042Z,13.90
2022-11-03T08:31:43.935Z,14.00
2022-11-03T08:34:12.546Z,14.00
2022-11-03T08:36:40.975Z,14.00
2022-11-03T08:39:11.275Z,14.00
2022-11-03T08:41:39.668Z,14.00
2022-11-03T08:44:07.859Z,14.00
2022-11-03T08:46:36.790Z,14.10
2022-11-03T08:49:05.071Z,14.10
2022-11-03T08:51:33.493Z,14.10
2022-11-03T08:54:02.339Z,14.10
2022-11-03T08:56:32.044Z,14.20
2022-11-03T08:59:00.230Z,14.20
2022-11-03T09:01:31.086Z,14.10
2022-11-03T09:03:59.833Z,14.10
2022-11-03T09:06:28.156Z,14.10
2022-11-03T09:11:48.409Z,14.20
2022-11-03T09:14:17.340Z,14.20
2022-11-03T09:16:45.458Z,14.30
2022-11-03T09:19:13.660Z,14.20
2022-11-03T09:21:42.418Z,14.30
2022-11-03T09:24:10.707Z,14.30
2022-11-03T09:26:39.215Z,14.30
2022-11-03T09:29:09.189Z,14.30
2022-11-03T09:31:37.411Z,14.30
2022-11-03T09:34:05.670Z,14.30
2022-11-03T09:36:34.336Z,14.30
2022-11-03T09:39:02.682Z,14.30
2022-11-03T09:41:53.654Z,14.40
2022-11-03T09:44:22.119Z,14.40
2022-11-03T09:46:58.047Z,14.40
2022-11-03T09:49:32.103Z,14.40
2022-11-03T09:52:00.861Z,14.30
2022-11-03T09:54:31.067Z,14.40
2022-11-03T09:57:03.658Z,14.40
2022-11-03T09:59:33.254Z,14.40
2022-11-03T10:02:01.568Z,14.40
2022-11-03T10:04:31.501Z,14.40
2022-11-03T10:07:01.120Z,14.30
2022-11-03T10:09:30.828Z,14.40
2022-11-03T10:11:59.114Z,14.40
2022-11-03T10:14:27.796Z,14.40
2022-11-03T10:17:00.440Z,14.40
2022-11-03T10:19:29.246Z,14.40
2022-11-03T10:21:57.968Z,14.40
2022-11-03T10:24:26.957Z,14.40
2022-11-03T10:26:55.952Z,14.50
2022-11-03T10:29:26.455Z,14.50
2022-11-03T10:31:58.795Z,14.50
2022-11-03T10:34:29.466Z,14.60
2022-11-03T10:37:21.907Z,14.60
2022-11-03T10:39:51.917Z,14.60
2022-11-03T10:42:24.774Z,14.60
2022-11-03T10:44:56.561Z,14.60
2022-11-03T10:47:33.206Z,14.60
2022-11-03T10:50:12.032Z,14.60
2022-11-03T10:52:40.324Z,14.60
2022-11-03T10:55:10.156Z,14.60
2022-11-03T10:57:38.517Z,14.60
2022-11-03T11:00:10.060Z,14.60
2022-11-03T11:02:42.696Z,14.60
2022-11-03T11:05:16.416Z,14.60
2022-11-03T11:07:46.573Z,14.60
2022-11-03T11:10:19.327Z,14.60
2022-11-03T11:13:07.223Z,14.70
2022-11-03T11:15:42.512Z,14.70
2022-11-03T11:18:32.792Z,14.70
2022-11-03T11:21:02.897Z,14.70
2022-11-03T11:23:52.595Z,14.80
2022-11-03T11:26:42.241Z,14.80
2022-11-03T11:29:44.597Z,14.90
2022-11-03T11:32:52.412Z,14.90
2022-11-03T11:36:07.692Z,15.00
2022-11-03T11:39:09.858Z,15.00
2022-11-03T11:42:10.459Z,15.00
2022-11-03T11:45:04.739Z,15.10
2022-11-03T11:47:50.245Z,15.20
2022-11-03T11:50:34.315Z,15.20
2022-11-03T11:53:12.371Z,15.30
2022-11-03T11:55:50.658Z,15.30
2022-11-03T11:58:23.814Z,15.30
2022-11-03T12:01:01.095Z,15.30
2022-11-03T12:03:38.982Z,15.30
2022-11-03T12:06:09.881Z,15.20
2022-11-03T12:08:37.996Z,15.30
2022-11-03T12:11:08.765Z,15.30
2022-11-03T12:13:49.028Z,15.30
2022-11-03T12:16:33.682Z,15.30
2022-11-03T12:19:39.264Z,15.20
2022-11-03T12:22:09.437Z,15.20
2022-11-03T12:24:51.998Z,15.20
2022-11-03T12:27:42.911Z,15.20
2022-11-03T12:30:20.097Z,15.20
2022-11-03T12:32:50.176Z,15.20
2022-11-03T12:35:18.520Z,15.20
2022-11-03T12:37:47.548Z,15.20
2022-11-03T12:40:16.418Z,15.30
2022-11-03T12:42:46.286Z,15.30
2022-11-03T12:45:14.793Z,15.30
2022-11-03T12:47:43.482Z,15.30
2022-11-03T12:50:12.214Z,15.30
2022-11-03T12:52:40.532Z,15.40
2022-11-03T12:55:10.726Z,15.40
2022-11-03T12:57:39.144Z,15.50
2022-11-03T13:00:10.346Z,15.50
2022-11-03T13:02:38.737Z,15.50
2022-11-03T13:05:07.983Z,15.50
2022-11-03T13:07:36.245Z,15.50
2022-11-03T13:10:04.950Z,15.50
2022-11-03T13:12:33.828Z,15.50
2022-11-03T13:15:04.774Z,15.50
2022-11-03T13:17:51.966Z,15.60
2022-11-03T13:20:23.214Z,15.60
2022-11-03T13:22:51.579Z,15.50
2022-11-03T13:25:20.093Z,15.60
2022-11-03T13:27:55.966Z,15.60
2022-11-03T13:30:24.811Z,15.50
2022-11-03T13:32:55.043Z,15.50
2022-11-03T13:35:31.486Z,15.40
2022-11-03T13:38:13.757Z,15.50
2022-11-03T13:40:56.185Z,15.50
2022-11-03T13:43:25.724Z,15.50
2022-11-03T13:45:58.622Z,15.50
2022-11-03T13:51:19.443Z,15.60
2022-11-03T13:59:28.136Z,15.50
2022-11-03T14:04:48.729Z,15.30
2022-11-03T14:07:18.070Z,15.20
2022-11-03T14:09:47.461Z,15.20
2022-11-03T14:12:35.995Z,15.10
2022-11-03T14:15:09.422Z,15.00
2022-11-03T14:17:38.690Z,14.90
2022-11-03T14:20:13.197Z,14.70
2022-11-03T14:22:42.930Z,14.60
2022-11-03T14:25:12.069Z,14.60
2022-11-03T14:27:41.119Z,14.50
2022-11-03T14:30:12.451Z,14.50
2022-11-03T14:32:41.774Z,14.40
2022-11-03T14:35:14.486Z,14.30
2022-11-03T14:37:44.098Z,14.20
2022-11-03T14:40:34.082Z,14.10
2022-11-03T14:43:02.474Z,14.00
2022-11-03T14:45:31.543Z,14.00
2022-11-03T14:48:00.522Z,14.00
2022-11-03T14:50:32.459Z,14.00
2022-11-03T14:53:01.599Z,13.90
2022-11-03T14:55:30.594Z,13.90
2022-11-03T14:58:02.501Z,13.90
2022-11-03T15:00:31.615Z,13.90
2022-11-03T15:03:01.184Z,13.90
2022-11-03T15:05:47.319Z,14.00
2022-11-03T15:08:17.727Z,14.00
2022-11-03T15:10:47.161Z,13.90
2022-11-03T15:13:18.981Z,13.90
2022-11-03T15:15:49.600Z,13.90
2022-11-03T15:18:18.515Z,13.90
2022-11-03T15:20:48.771Z,13.90
2022-11-03T15:26:07.195Z,13.90
2022-11-03T15:28:36.743Z,14.00
2022-11-03T15:31:05.504Z,14.00
2022-11-03T15:33:34.490Z,14.00
2022-11-03T15:36:07.514Z,14.00
2022-11-03T15:38:36.315Z,13.90
2022-11-03T15:41:20.458Z,14.00
2022-11-03T15:43:50.726Z,14.00
2022-11-03T15:46:20.659Z,14.00
2022-11-03T15:48:54.719Z,14.00
2022-11-03T15:51:25.416Z,14.00
2022-11-03T15:53:58.484Z,14.00
2022-11-03T15:56:27.949Z,14.00
2022-11-03T15:58:56.981Z,14.00
2022-11-03T16:01:25.965Z,14.00
2022-11-03T16:03:57.147Z,14.00
2022-11-03T16:06:53.689Z,13.90
2022-11-03T16:09:20.396Z,13.90
2022-11-03T16:11:49.194Z,13.90
2022-11-03T16:14:18.620Z,13.80
2022-11-03T16:16:47.816Z,13.80
2022-11-03T16:19:16.759Z,13.80
2022-11-03T16:21:47.321Z,13.80
2022-11-03T16:24:16.830Z,13.80
2022-11-03T16:26:45.879Z,13.80
2022-11-03T16:29:15.078Z,13.80
2022-11-03T16:31:44.169Z,13.80
2022-11-03T16:34:13.278Z,13.70
2022-11-03T16:36:42.748Z,13.80
2022-11-03T16:39:17.020Z,13.80
2022-11-03T16:41:46.739Z,13.80
2022-11-03T16:44:15.901Z,13.80
2022-11-03T16:46:45.487Z,13.70
2022-11-03T16:49:14.749Z,13.70
2022-11-03T16:51:44.282Z,13.80
2022-11-03T16:54:14.907Z,13.80
2022-11-03T16:56:44.411Z,13.60
2022-11-03T16:59:12.774Z,13.60
2022-11-03T17:01:41.616Z,13.60
2022-11-03T17:04:09.930Z,13.60
2022-11-03T17:06:38.182Z,13.60
2022-11-03T17:09:07.258Z,13.60
2022-11-03T17:11:36.937Z,13.50
2022-11-03T17:14:06.357Z,13.60
2022-11-03T17:16:37.645Z,13.60
2022-11-03T17:19:05.817Z,13.60
2022-11-03T17:21:33.987Z,13.60
2022-11-03T17:24:02.299Z,13.50
2022-11-03T17:26:43.057Z,13.50
2022-11-03T17:29:18.673Z,13.50
2022-11-03T17:31:46.952Z,13.40
2022-11-03T17:34:15.102Z,13.40
2022-11-03T17:36:43.381Z,13.40
2022-11-03T17:39:18.259Z,13.50
2022-11-03T17:41:55.353Z,13.40
2022-11-03T17:44:30.606Z,13.40
2022-11-03T17:46:58.901Z,13.30
2022-11-03T17:49:27.134Z,13.40
2022-11-03T17:51:55.487Z,13.30
2022-11-03T17:54:26.317Z,13.40
2022-11-03T17:56:55.886Z,13.40
2022-11-03T17:59:24.352Z,13.40
2022-11-03T18:01:52.801Z,13.40
2022-11-03T18:04:21.895Z,13.40
2022-11-03T18:06:50.088Z,13.40
2022-11-03T18:09:18.318Z,13.40
2022-11-03T18:12:04.205Z,13.40
2022-11-03T18:14:34.243Z,13.40
2022-11-03T18:17:02.934Z,13.50
2022-11-03T18:19:32.197Z,13.50
2022-11-03T18:22:00.489Z,13.40
2022-11-03T18:24:29.073Z,13.40
2022-11-03T18:26:59.972Z,13.30
2022-11-03T18:29:28.125Z,13.30
2022-11-03T18:31:58.814Z,13.30
2022-11-03T18:34:28.231Z,13.30
2022-11-03T18:36:56.531Z,13.30
2022-11-03T18:39:28.781Z,13.20
2022-11-03T18:41:57.332Z,13.20
2022-11-03T18:44:28.427Z,13.10
2022-11-03T18:46:59.495Z,13.10
2022-11-03T18:49:33.051Z,13.00
2022-11-03T18:52:04.390Z,13.10
2022-11-03T18:54:35.370Z,13.00
2022-11-03T18:57:05.350Z,13.10
2022-11-03T18:59:37.669Z,13.10
2022-11-03T19:02:18.307Z,13.00
2022-11-03T19:04:47.273Z,13.10
2022-11-03T19:07:24.475Z,13.10
2022-11-03T19:09:53.085Z,13.10
2022-11-03T19:12:21.921Z,13.10
2022-11-03T19:14:53.699Z,13.10
2022-11-03T19:17:24.834Z,13.10
2022-11-03T19:19:53.966Z,13.10
2022-11-03T19:22:23.762Z,13.10
2022-11-03T19:24:55.562Z,13.10
2022-11-03T19:27:26.660Z,13.00
2022-11-03T19:29:55.859Z,13.00
2022-11-03T19:32:29.378Z,13.00
2022-11-03T19:35:00.642Z,13.00
2022-11-03T19:37:35.874Z,13.00
2022-11-03T19:40:09.409Z,12.90
2022-11-03T19:42:37.513Z,12.90
2022-11-03T19:45:08.033Z,13.00
2022-11-03T19:47:47.764Z,13.00
2022-11-03T19:50:24.965Z,13.00
2022-11-03T19:52:56.223Z,12.90
2022-11-03T19:55:29.518Z,12.90
2022-11-03T19:58:02.243Z,12.90
2022-11-03T20:00:31.685Z,12.80
2022-11-03T20:03:03.243Z,12.80
2022-11-03T20:05:31.901Z,12.80
2022-11-03T20:08:03.045Z,12.70
2022-11-03T20:10:35.992Z,12.70
2022-11-03T20:13:05.488Z,12.70
2022-11-03T20:15:34.035Z,12.80
2022-11-03T20:18:03.670Z,12.80
2022-11-03T20:20:37.155Z,12.70
2022-11-03T20:23:08.853Z,12.70
2022-11-03T20:25:38.420Z,12.70
2022-11-03T20:28:17.911Z,12.70
2022-11-03T20:30:46.316Z,12.70
2022-11-03T20:33:18.808Z,12.70
2022-11-03T20:35:48.078Z,12.70
2022-11-03T20:38:20.107Z,12.70
2022-11-03T20:40:49.508Z,12.70
2022-11-03T20:43:26.338Z,12.70
2022-11-03T20:45:54.916Z,12.80
2022-11-03T20:48:25.211Z,12.80
2022-11-03T20:50:55.197Z,12.70
2022-11-03T20:53:25.322Z,12.70
2022-11-03T20:55:54.366Z,12.70
2022-11-03T20:58:23.036Z,12.80
2022-11-03T21:00:51.476Z,12.70
2022-11-03T21:03:44.937Z,12.70
2022-11-03T21:06:17.520Z,12.70
2022-11-03T21:08:47.094Z,12.50
2022-11-03T21:11:28.545Z,12.50
2022-11-03T21:13:58.117Z,12.40
2022-11-03T21:16:45.390Z,12.40
2022-11-03T21:19:37.046Z,12.40
2022-11-03T21:25:04.092Z,12.20
2022-11-03T21:27:33.169Z,12.10
2022-11-03T21:30:02.024Z,12.00
2022-11-03T21:32:30.222Z,11.90
2022-11-03T21:34:58.814Z,11.90
2022-11-03T21:37:28.738Z,11.90
2022-11-03T21:39:56.921Z,11.80
2022-11-03T21:42:42.799Z,11.70
2022-11-03T21:45:12.303Z,11.60
2022-11-03T21:48:02.092Z,11.60
2022-11-03T21:50:29.273Z,11.50
2022-11-03T21:52:59.257Z,11.50
2022-11-03T21:55:28.567Z,11.50
2022-11-03T21:57:56.833Z,11.50
2022-11-03T22:00:25.252Z,11.40
2022-11-03T22:02:56.109Z,11.40
2022-11-03T22:05:24.604Z,11.40
2022-11-03T22:07:52.739Z,11.40
2022-11-03T22:10:22.440Z,11.50
2022-11-03T22:12:57.237Z,11.50
2022-11-03T22:15:43.039Z,11.40
2022-11-03T22:18:11.972Z,11.50
2022-11-03T22:20:58.286Z,11.50
2022-11-03T22:23:44.248Z,11.50
2022-11-03T22:26:33.985Z,11.50
2022-11-03T22:29:19.816Z,11.40
2022-11-03T22:31:48.068Z,11.50
2022-11-03T22:34:35.062Z,11.40
2022-11-03T22:37:05.360Z,11.40
2022-11-03T22:39:52.495Z,11.40
2022-11-03T22:42:39.416Z,11.30
2022-11-03T22:45:27.614Z,11.30
2022-11-03T22:47:57.420Z,11.20
2022-11-03T22:50:28.442Z,11.30
2022-11-03T22:52:56.924Z,11.20
2022-11-03T22:55:24.302Z,11.20
2022-11-03T22:57:53.751Z,11.20
2022-11-03T23:00:22.569Z,11.20
2022-11-03T23:02:54.640Z,11.20
2022-11-03T23:05:22.757Z,11.30
2022-11-03T23:07:50.840Z,11.30
2022-11-03T23:10:19.244Z,11.30
2022-11-03T23:12:47.697Z,11.30
2022-11-03T23:15:35.377Z,11.30
2022-11-03T23:18:23.300Z,11.30
2022-11-03T23:21:09.786Z,11.30
2022-11-03T23:23:57.550Z,11.30
2022-11-03T23:26:27.520Z,11.30
2022-11-03T23:28:55.676Z,11.30
2022-11-03T23:31:25.189Z,11.30
2022-11-03T23:33:53.448Z,11.30
2022-11-03T23:36:21.626Z,11.30
2022-11-03T23:38:49.860Z,11.30
2022-11-03T23:41:19.799Z,11.30
2022-11-03T23:43:48.366Z,11.30
2022-11-03T23:46:37.317Z,11.30
2022-11-03T23:49:07.390Z,11.40
2022-11-03T23:51:36.886Z,11.40
2022-11-03T23:54:07.254Z,11.50
2022-11-03T23:56:54.291Z,11.30
2022-11-03T23:59:23.141Z,11.30
